Latest Weather Observations for Gunnedah Airport

IDN60801

Issued at 9:02 am EDT Saturday 6 February 2016 (issued every 30 minutes, with the page automatically refreshed every 10 minutes)

About weather observations | Map of weather stations | Latest weather observations for NSW | Other Formats
Station Details ID: 055202 Name: GUNNEDAH AIRPORT AWS Lat: -30.95 Lon: 150.25 Height: 262.57 m
Data from the previous 72 hours. | See also: Recent months at Gunnedah Airport
Date/Time
EDT
Temp
°C
App
Temp
°C
Dew
Point
Rel
Hum
%
Delta-T
°C
Wind Press
QNH
hPa
Press
MSL
hPa
Rain
since 9 am
mm
Dir
 
Spd
km/h
Gust
km/h
Spd
kts
Gust
kts
06/08:30am 21.5 17.0 13.7 61 4.6 SSE 30 39 16 21 1015.1 1013.6 0.0
06/08:00am 20.1 16.4 13.8 67 3.7 SSE 26 37 14 20 1014.8 1013.3 0.0
06/07:30am 18.8 15.9 14.1 74 2.7 SSE 22 33 12 18 1014.4 1012.9 0.0
06/07:00am 17.8 14.9 14.1 79 2.1 SSE 22 28 12 15 1013.9 1012.5 0.0
06/06:30am 17.1 14.2 14.0 82 1.8 SE 22 30 12 16 1013.5 1012.0 0.0
06/06:00am 17.0 13.7 14.1 83 1.7 SSE 24 32 13 17 1013.1 1011.6 0.0
06/05:30am 17.4 13.8 14.1 81 1.9 SSE 26 33 14 18 1012.9 1011.4 0.0
06/05:00am 17.5 13.9 14.2 81 1.9 SSE 26 37 14 20 1012.9 1011.4 0.0
06/04:30am 17.6 14.3 14.1 80 2.0 SSE 24 30 13 16 1013.0 1011.5 0.0
06/04:00am 17.7 14.9 14.2 80 2.0 SSE 22 32 12 17 1013.3 1011.8 0.0
06/03:30am 17.7 14.7 13.8 78 2.2 SSE 22 30 12 16 1013.3 1011.8 0.0
06/03:00am 18.1 14.4 13.8 76 2.5 SSE 26 37 14 20 1013.3 1011.8 0.0
06/02:30am 18.2 14.9 13.9 76 2.5 SSE 24 33 13 18 1013.5 1012.0 0.0
06/02:00am 18.4 14.7 13.9 75 2.6 SSE 26 35 14 19 1013.8 1012.4 0.0
06/01:30am 18.5 14.7 13.6 73 2.8 SSE 26 35 14 19 1013.9 1012.5 0.0
06/01:00am 18.8 14.9 13.4 71 3.1 SSE 26 35 14 19 1014.4 1012.9 0.0
06/12:30am 18.7 14.9 13.6 72 2.9 SSE 26 33 14 18 1014.4 1012.9 0.0
06/12:00am 18.9 15.4 13.5 71 3.1 SSE 24 35 13 19 1014.7 1013.2 0.0
 
Date/Time
EDT
Temp
°C
App
Temp
°C
Dew
Point
Rel
Hum
%
Delta-T
°C
Wind Press
QNH
hPa
Press
MSL
hPa
Rain
since 9 am
mm
Dir
 
Spd
km/h
Gust
km/h
Spd
kts
Gust
kts
05/11:30pm 19.2 15.0 13.6 70 3.2 SSE 28 37 15 20 1014.8 1013.3 0.0
05/11:00pm 19.4 14.5 13.6 69 3.4 SSE 32 46 17 25 1014.8 1013.3 0.0
05/10:30pm 20.0 15.4 13.5 66 3.8 SSE 30 43 16 23 1014.9 1013.4 0.0
05/10:00pm 20.1 15.1 13.3 65 3.9 SSE 32 44 17 24 1014.7 1013.2 0.0
05/09:30pm 20.4 14.8 13.4 64 4.1 SSE 35 44 19 24 1014.4 1012.9 0.0
05/09:00pm 20.9 15.4 13.6 63 4.3 SSE 35 50 19 27 1013.9 1012.5 0.0
05/08:30pm 21.4 16.0 13.8 62 4.5 SSE 35 48 19 26 1013.3 1011.8 0.0
05/08:00pm 22.1 16.2 13.7 59 4.9 SSE 37 50 20 27 1012.9 1011.4 0.0
05/07:30pm 23.4 16.3 13.3 53 5.9 SSE 43 54 23 29 1012.4 1010.9 0.0
05/07:00pm 24.3 17.2 13.5 51 6.4 SSE 43 59 23 32 1012.0 1010.5 0.0
05/06:32pm 24.9 18.1 13.1 48 6.9 SSE 41 59 22 32 1011.6 1010.1 0.0
05/06:30pm 25.2 18.9 13.4 48 7.0 SSE 39 56 21 30 1011.6 1010.1 0.0
05/06:02pm 25.4 17.8 13.6 48 7.0 SSE 46 65 25 35 1011.3 1009.8 0.0
05/06:00pm 25.7 17.9 14.2 49 6.9 SSE 48 65 26 35 1011.3 1009.8 0.0
05/05:35pm 26.5 20.1 14.3 47 7.4 SSE 41 61 22 33 1011.2 1009.7 0.0
05/05:30pm 26.1 19.3 14.2 48 7.2 SSE 43 57 23 31 1011.1 1009.6 0.0
05/05:00pm 27.2 20.3 13.9 44 8.0 SSE 43 61 23 33 1011.2 1009.7 0.0
05/04:33pm 28.3 22.3 14.5 43 8.4 SSE 39 57 21 31 1011.4 1009.9 0.0
05/04:30pm 27.4 20.6 14.4 45 7.9 SSE 43 57 23 31 1011.3 1009.8 0.0
05/04:01pm 28.0 21.2 14.3 43 8.3 SSE 43 61 23 33 1011.4 1009.9 0.0
05/04:00pm 27.6 20.5 13.9 43 8.3 SSE 44 61 24 33 1011.4 1009.9 0.0
05/03:37pm 27.7 20.5 13.6 42 8.5 SSE 44 67 24 36 1011.5 1010.0 0.0
05/03:30pm 27.9 20.8 13.4 40 8.7 SSE 43 57 23 31 1011.5 1010.0 0.0
05/03:03pm 28.1 20.9 13.2 39 8.9 SSE 43 61 23 33 1011.8 1010.3 0.0
05/03:00pm 28.3 21.5 14.2 42 8.6 SSE 43 57 23 31 1011.9 1010.4 0.0
05/02:30pm 28.1 21.1 13.6 41 8.7 SSE 43 57 23 31 1012.1 1010.6 0.0
05/02:12pm 28.5 22.6 14.7 43 8.4 SSE 39 57 21 31 1012.1 1010.6 0.0
05/02:00pm 28.4 21.5 13.9 41 8.8 SSE 43 54 23 29 1012.2 1010.7 0.0
05/01:30pm 28.2 22.3 13.7 41 8.7 SSE 37 48 20 26 1012.4 1010.9 0.0
05/01:00pm 26.7 20.4 13.4 43 7.9 SSE 39 54 21 29 1012.7 1011.2 0.0
05/12:30pm 27.1 21.5 14.5 46 7.6 SSE 37 50 20 27 1013.0 1011.5 0.0
05/12:00pm 26.4 21.2 14.5 48 7.2 SSE 35 43 19 23 1013.4 1011.9 0.0
05/11:30am 25.2 19.4 14.0 49 6.7 SSE 37 50 20 27 1013.6 1012.1 0.0
05/11:00am 25.3 19.7 13.2 47 7.1 SSE 35 44 19 24 1013.7 1012.3 0.0
05/10:30am 24.6 19.7 13.8 51 6.4 SSE 32 43 17 23 1013.7 1012.3 0.0
05/10:00am 23.9 19.1 14.0 54 5.9 SE 32 44 17 24 1013.8 1012.4 0.0
05/09:30am 22.3 17.2 13.6 58 5.1 SE 33 46 18 25 1013.7 1012.3 0.0
05/09:00am 21.7 16.0 13.1 58 5.0 SSE 35 46 19 25 1013.5 1012.0 0.0
05/08:30am 21.0 15.4 13.4 62 4.4 SSE 35 50 19 27 1013.3 1011.8 0.0
05/08:00am 19.9 14.6 13.1 65 3.9 SSE 33 48 18 26 1013.0 1011.5 0.0
05/07:30am 19.0 13.9 13.2 69 3.3 SSE 32 46 17 25 1012.4 1010.9 0.0
05/07:00am 18.4 13.7 13.1 71 3.0 SSE 30 41 16 22 1012.1 1010.6 0.0
05/06:30am 18.0 12.8 12.9 72 2.9 SSE 32 41 17 22 1011.8 1010.3 0.0
05/06:00am 17.8 13.4 12.9 73 2.8 SSE 28 39 15 21 1011.5 1010.0 0.0
05/05:30am 17.7 13.7 13.0 74 2.7 SSE 26 37 14 20 1011.2 1009.7 0.0
05/05:00am 18.1 13.0 13.0 72 2.9 SSE 32 39 17 21 1010.8 1009.3 0.0
05/04:30am 18.1 13.0 13.0 72 2.9 SSE 32 41 17 22 1010.9 1009.4 0.0
05/04:08am 18.4 13.3 13.1 71 3.0 SSE 32 50 17 27 1010.7 1009.2 0.0
05/04:00am 18.3 13.2 13.0 71 3.0 SSE 32 46 17 25 1010.7 1009.2 0.0
05/03:30am 18.4 12.2 12.8 70 3.2 SSE 37 48 20 26 1010.8 1009.3 0.0
05/03:00am 18.5 13.4 13.1 71 3.1 SSE 32 43 17 23 1011.0 1009.5 0.0
05/02:30am 18.6 14.0 13.5 72 2.9 SSE 30 44 16 24 1011.3 1009.8 0.0
05/02:00am 18.7 14.5 13.6 72 2.9 SSE 28 43 15 23 1011.7 1010.2 0.0
05/01:30am 19.0 14.4 13.6 71 3.1 SSE 30 43 16 23 1011.9 1010.4 0.0
05/01:11am 19.2 15.1 13.8 71 3.1 SSE 28 46 15 25 1012.1 1010.6 0.0
05/01:00am 19.1 14.0 13.7 71 3.1 SSE 33 43 18 23 1012.1 1010.6 0.0
05/12:30am 19.2 14.3 13.6 70 3.2 SSE 32 46 17 25 1011.9 1010.4 0.0
05/12:00am 19.6 13.4 13.8 69 3.4 SSE 39 50 21 27 1011.9 1010.4 0.0
 
Date/Time
EDT
Temp
°C
App
Temp
°C
Dew
Point
Rel
Hum
%
Delta-T
°C
Wind Press
QNH
hPa
Press
MSL
hPa
Rain
since 9 am
mm
Dir
 
Spd
km/h
Gust
km/h
Spd
kts
Gust
kts
04/11:34pm 19.9 14.5 13.8 68 3.5 SSE 35 57 19 31 1011.9 1010.4 0.0
04/11:30pm 19.8 14.4 14.0 69 3.4 SSE 35 48 19 26 1011.9 1010.4 0.0
04/11:10pm 20.0 14.2 13.9 68 3.6 SSE 37 56 20 30 1011.8 1010.3 0.0
04/11:00pm 20.2 14.1 14.1 68 3.6 SSE 39 54 21 29 1011.7 1010.2 0.0
04/10:30pm 20.6 14.6 14.3 67 3.7 SSE 39 54 21 29 1011.5 1010.0 0.0
04/10:06pm 20.8 14.8 14.5 67 3.7 SSE 39 57 21 31 1011.4 1009.9 0.0
04/10:00pm 20.7 14.7 14.4 67 3.7 SSE 39 54 21 29 1011.5 1010.0 0.0
04/09:30pm 21.0 15.1 14.6 67 3.8 SSE 39 48 21 26 1011.1 1009.6 0.0
04/09:13pm 21.2 15.3 14.8 67 3.8 SSE 39 57 21 31 1010.8 1009.3 0.0
04/09:00pm 21.3 15.4 14.7 66 3.9 SSE 39 56 21 30 1010.7 1009.2 0.0
04/08:30pm 21.6 16.2 15.0 66 3.9 SSE 37 50 20 27 1010.1 1008.6 0.0
04/08:10pm 22.1 17.1 15.0 64 4.3 SSE 35 54 19 29 1009.7 1008.2 0.0
04/08:00pm 22.2 16.1 15.1 64 4.3 SSE 41 56 22 30 1009.6 1008.1 0.0
04/07:30pm 22.9 17.2 15.2 62 4.6 SSE 39 57 21 31 1009.1 1007.6 0.0
04/07:01pm 23.8 17.9 15.6 60 5.0 SSE 41 59 22 32 1008.7 1007.2 0.0
04/07:00pm 23.8 17.5 15.6 60 5.0 SSE 43 59 23 32 1008.7 1007.2 0.0
04/06:30pm 25.7 18.8 15.7 54 6.1 SSE 46 57 25 31 1008.2 1006.7 0.0
04/06:00pm 26.2 19.3 15.6 52 6.5 SSE 46 65 25 35 1007.9 1006.4 0.0
04/05:30pm 26.8 19.9 15.5 50 7.0 SSE 46 65 25 35 1007.5 1006.0 0.0
04/05:01pm 27.2 20.7 15.6 49 7.2 SSE 44 65 24 35 1007.3 1005.8 0.0
04/05:00pm 27.1 20.6 15.5 49 7.2 SSE 44 61 24 33 1007.3 1005.8 0.0
04/04:58pm 27.5 21.3 15.8 48 7.3 SSE 43 61 23 33 1007.4 1005.9 0.0
04/04:30pm 27.8 21.0 15.8 48 7.4 SSE 46 63 25 34 1007.5 1006.0 0.0
04/04:22pm 27.8 21.4 15.5 47 7.6 SSE 43 63 23 34 1007.4 1005.9 0.0
04/04:00pm 27.9 21.2 16.2 49 7.3 SSE 46 59 25 32 1007.5 1006.0 0.0
04/03:41pm 28.3 22.4 17.2 51 7.0 SSE 44 63 24 34 1007.5 1006.0 0.0
04/03:30pm 28.3 21.9 16.9 50 7.2 SSE 46 59 25 32 1007.6 1006.1 0.0
04/03:00pm 29.2 23.4 17.4 49 7.6 SE 44 63 24 34 1007.7 1006.2 0.0
04/02:30pm 28.6 22.9 16.2 47 7.8 SSE 41 59 22 32 1008.0 1006.5 0.0
04/02:10pm 28.5 22.7 16.1 47 7.7 SSE 41 59 22 32 1008.0 1006.5 0.0
04/02:00pm 28.8 23.7 16.7 48 7.7 SSE 39 54 21 29 1007.9 1006.4 0.0
04/01:49pm 29.3 24.4 17.2 48 7.7 SSE 39 57 21 31 1008.1 1006.6 0.0
04/01:30pm 29.4 24.2 16.6 46 8.1 SSE 39 50 21 27 1008.2 1006.7 0.0
04/01:00pm 30.1 26.3 18.2 49 7.7 SSE 35 46 19 25 1008.3 1006.8 0.0
04/12:30pm 28.4 24.2 16.3 47 7.6 SSE 33 46 18 25 1008.4 1006.9 0.0
04/12:20pm 28.5 24.6 16.4 48 7.6 SSE 32 52 17 28 1008.5 1007.0 0.0
04/12:00pm 28.1 23.5 16.1 48 7.5 SSE 35 46 19 25 1008.6 1007.1 0.0
04/11:30am 27.6 23.0 16.2 49 7.1 SSE 35 46 19 25 1008.7 1007.2 0.0
04/11:00am 25.7 20.8 15.4 53 6.3 SSE 35 48 19 26 1008.6 1007.1 0.0
04/10:30am 27.3 23.7 18.6 59 5.6 SSE 35 48 19 26 1008.6 1007.1 0.0
04/10:00am 24.9 21.2 16.9 61 5.0 SSE 32 43 17 23 1008.6 1007.1 0.0
04/09:30am 25.1 21.3 17.3 62 4.9 SSE 33 43 18 23 1008.2 1006.7 0.0
04/09:00am 23.9 20.0 16.9 65 4.4 SSE 33 48 18 26 1008.1 1006.6 0.2
04/08:30am 23.5 19.7 16.8 66 4.2 SE 32 41 17 22 1007.9 1006.4 0.2
04/08:00am 23.0 20.2 17.2 70 3.6 SE 28 35 15 19 1007.3 1005.8 0.2
04/07:30am 22.5 20.2 17.6 74 3.1 SE 26 37 14 20 1006.8 1005.2 0.2
04/07:00am 22.0 20.2 17.8 77 2.6 SE 24 33 13 18 1006.5 1004.9 0.2
04/06:30am 22.2 20.8 18.0 77 2.6 SE 22 28 12 15 1005.9 1004.4 0.2
04/06:00am 22.6 20.6 18.4 77 2.7 SSE 26 32 14 17 1005.3 1003.8 0.2
04/05:30am 22.6 20.6 18.4 77 2.7 SSE 26 37 14 20 1004.8 1003.3 0.2
04/05:00am 22.5 21.0 18.5 78 2.5 SSE 24 33 13 18 1004.4 1002.9 0.2
04/04:30am 22.3 20.7 18.3 78 2.5 SSE 24 32 13 17 1004.1 1002.6 0.2
04/04:00am 22.6 21.8 18.4 77 2.7 SSE 20 28 11 15 1003.9 1002.4 0.2
04/03:30am 23.3 22.8 19.2 78 2.6 SSE 20 30 11 16 1003.7 1002.2 0.2
04/03:00am 23.7 24.8 21.2 86 1.7 SE 17 22 9 12 1003.7 1002.2 0.2
04/02:30am 23.7 26.0 21.4 87 1.5 SSE 11 17 6 9 1003.6 1002.1 0.2
04/02:00am 22.9 25.6 21.4 91 1.0 SE 9 13 5 7 1003.7 1002.2 0.2
04/01:30am 22.7 25.2 21.0 90 1.1 ESE 9 11 5 6 1003.8 1002.3 0.2
04/01:00am 23.1 25.3 21.2 89 1.3 SE 11 15 6 8 1004.0 1002.5 0.2
04/12:30am 23.6 24.9 21.7 89 1.3 SE 17 20 9 11 1004.2 1002.7 0.2
04/12:00am 23.2 26.1 21.8 92 0.9 SSE 9 11 5 6 1004.4 1002.9 0.2
 
Date/Time
EDT
Temp
°C
App
Temp
°C
Dew
Point
Rel
Hum
%
Delta-T
°C
Wind Press
QNH
hPa
Press
MSL
hPa
Rain
since 9 am
mm
Dir
 
Spd
km/h
Gust
km/h
Spd
kts
Gust
kts
03/11:30pm 22.3 24.7 20.8 91 1.0 SSW 9 11 5 6 1004.4 1002.9 0.2
03/11:00pm 22.6 24.8 21.1 91 1.0 S 11 11 6 6 1004.4 1002.9 0.2
03/10:30pm 22.6 25.3 20.7 89 1.2 SSE 7 9 4 5 1004.1 1002.6 0.2
03/10:00pm 22.8 25.2 20.9 89 1.3 SE 9 11 5 6 1004.0 1002.5 0.2
03/09:30pm 23.3 26.4 21.0 87 1.5 ESE 6 7 3 4 1004.1 1002.6 0.2
03/09:00pm 23.5 26.0 21.0 86 1.7 ESE 9 11 5 6 1003.7 1002.2 0.2
03/08:30pm 24.0 25.3 20.9 83 2.1 SSE 15 17 8 9 1003.4 1001.8 0.2
03/08:00pm 24.3 25.9 20.8 81 2.3 SE 13 17 7 9 1003.1 1001.5 0.2
03/07:30pm 24.7 27.3 21.2 81 2.3 SSE 9 11 5 6 1002.8 1001.2 0.2
03/07:00pm 24.2 25.7 21.3 84 1.9 ESE 15 24 8 13 1002.6 1001.0 0.2
03/06:30pm 24.1 23.0 21.0 83 2.1 SE 28 37 15 20 1002.3 1000.7 0.2
03/06:10pm 26.7 28.5 22.5 78 2.9 SSE 17 32 9 17 1002.0 1000.5 0.2
03/06:00pm 27.1 31.4 23.6 81 2.4 SSE 7 11 4 6 1002.1 1000.6 0.2
03/05:30pm 26.6 30.9 23.3 82 2.3 WNW 6 11 3 6 1001.3 999.8 0.2
03/05:00pm 25.7 27.4 23.4 87 1.6 WNW 20 30 11 16 1001.2 999.7 0.2
03/04:30pm 29.3 29.5 21.3 62 5.4 WNW 22 33 12 18 1001.1 999.6 0.0
03/04:00pm 31.5 33.0 19.8 49 7.8 NNW 11 15 6 8 1001.0 999.5 0.0
03/03:30pm 31.8 34.2 20.1 50 7.8 ENE 7 11 4 6 1000.9 999.4 0.0
03/03:00pm 32.8 35.7 20.7 49 8.2 NNW 6 9 3 5 1001.2 999.7 0.0
03/02:30pm 32.4 34.9 20.3 48 8.1 N 7 13 4 7 1001.5 1000.0 0.0
03/02:00pm 31.5 33.6 20.1 50 7.6 NNE 9 15 5 8 1001.8 1000.3 0.0
03/01:30pm 30.6 33.2 20.5 54 6.8 N 7 20 4 11 1002.3 1000.7 0.0
03/01:00pm 30.7 32.2 20.6 54 6.8 NW 13 20 7 11 1002.9 1001.3 0.0
03/12:30pm 29.0 30.6 19.9 58 6.0 NW 11 17 6 9 1003.5 1001.9 0.0
03/12:00pm 28.4 29.1 19.6 59 5.8 NNW 15 20 8 11 1003.9 1002.4 0.0
03/11:30am 27.6 28.4 19.1 59 5.5 WNW 13 17 7 9 1004.3 1002.8 0.0
03/11:00am 27.8 28.7 18.5 57 6.0 N 11 19 6 10 1004.3 1002.8 0.0
03/10:30am 27.7 30.1 18.7 58 5.8 NNE 4 7 2 4 1004.3 1002.8 0.0
03/10:00am 26.5 28.2 18.4 61 5.2 NNW 7 11 4 6 1004.5 1003.0 0.0
03/09:30am 25.4 27.1 18.1 64 4.7 N 6 13 3 7 1004.4 1002.9 0.0

Other Formats:

Comma delimited format used in spreadsheet applications
http://www.bom.gov.au/fwo/IDN60801/IDN60801.95740.axf

JavaScript Object Notation format (JSON) in row-major order
http://www.bom.gov.au/fwo/IDN60801/IDN60801.95740.json